首页
METAR-TAF:

METAR-TAF

机场 :

曼海姆, 德国

纬度: 49-28-21N, 经度: 008-30-56E, 海拔: 100米

当前天气观测

该预报发布于3小时和22分钟前的20:50 UTC
风速2节,风向多变
温度 25°C
湿度 57%
气压 1018 hPa
能见度10公里或以上
1500米以下无云,无积雨云

METAR: EDFM 242050Z VRB02KT CAVOK 25/16 Q1018

时间: 02:12 (00:12 UTC)

预报

该预报发布于7小时和12分钟前的17:00 UTC
预报有效从24日的 18点(UTC)到 24日的 21点(UTC)
风速8节,风向
能见度10公里或以上
1500米以下无云,无积雨云

TAF: EDFM 241700Z 2418/2421 10008KT CAVOK

超过4000个机场的气象观测和天气预报(METAR&TAF报告)。

可查询的气象台以黄色和红色小点在地图上表示。

将鼠标移到小点上方,可查看气象台名称。

然后点击查看天气观测和预报。

如需切换地图:点击带黑十字的绿色按钮放大地图;点击带横线的绿色按钮缩小地图;或者点击绿色箭头查看邻近地区的地图。


METAR-TAF: